Time;durP1;ratioP1;P1;durP2;ratioP2;P2;SDS_P1;SDS_P2;PMS_P1;PMS_P2;Temp;Humidity;BMP_temperature;BMP_pressure;BME280_temperature;BME280_humidity;BME280_pressure;Samples;Min_cycle;Max_cycle;Signal;HPM_P1;HPM_P2
2021/03/25 00:01:14;;;;;;;41.78;20.08;;;5.80;99.90;;;;;;5011434;28;20119;-80
2021/03/25 00:03:42;;;;;;;44.10;21.20;;;5.80;99.90;;;;;;5001817;28;20068;-80
2021/03/25 00:06:08;;;;;;;51.63;22.25;;;5.70;99.90;;;;;;5015137;28;20080;-81
2021/03/25 00:08:34;;;;;;;50.42;21.95;;;5.70;99.90;;;;;;5001522;28;20049;-81
2021/03/25 00:11:01;;;;;;;49.95;20.88;;;5.70;99.90;;;;;;5000322;28;20049;-81
2021/03/25 00:13:27;;;;;;;49.25;21.95;;;5.70;99.90;;;;;;5009056;28;20072;-81
2021/03/25 00:15:54;;;;;;;50.58;21.05;;;5.60;99.90;;;;;;5007849;28;20081;-81
2021/03/25 00:18:20;;;;;;;45.45;22.08;;;5.60;99.90;;;;;;4998069;28;20048;-81
2021/03/25 00:20:47;;;;;;;49.10;22.17;;;5.60;99.90;;;;;;5006533;28;20050;-81
2021/03/25 00:23:14;;;;;;;45.05;22.20;;;5.50;99.90;;;;;;4996700;28;20060;-81
2021/03/25 00:25:42;;;;;;;46.78;22.58;;;5.50;99.90;;;;;;4996831;28;20061;-81
2021/03/25 00:28:12;;;;;;;51.13;22.88;;;5.50;99.90;;;;;;4994412;28;20057;-82
2021/03/25 00:30:39;;;;;;;42.90;22.08;;;5.50;99.90;;;;;;4959717;28;20168;-81
2021/03/25 00:33:11;;;;;;;49.85;22.67;;;5.40;99.90;;;;;;4985395;28;20061;-81
2021/03/25 00:35:40;;;;;;;42.42;21.88;;;5.40;99.90;;;;;;4986331;28;20151;-81
2021/03/25 00:38:06;;;;;;;50.35;21.48;;;5.30;99.90;;;;;;5003094;28;20058;-82
2021/03/25 00:40:45;;;;;;;48.45;21.73;;;5.30;99.90;;;;;;5002487;28;20046;-81
2021/03/25 00:43:13;;;;;;;48.85;21.70;;;5.30;99.90;;;;;;5004703;28;20160;-81
2021/03/25 00:45:46;;;;;;;44.75;20.40;;;5.30;99.90;;;;;;4986862;28;20404;-81
2021/03/25 00:48:14;;;;;;;44.15;21.88;;;5.30;99.90;;;;;;4993585;28;20049;-81
2021/03/25 00:50:46;;;;;;;52.45;22.17;;;5.30;99.90;;;;;;5003416;28;20053;-80
2021/03/25 00:53:16;;;;;;;43.78;21.25;;;5.30;99.90;;;;;;4983104;28;20069;-80
2021/03/25 00:55:43;;;;;;;47.58;20.80;;;5.30;99.90;;;;;;4989299;28;20060;-81
2021/03/25 00:58:09;;;;;;;49.13;22.35;;;5.30;99.90;;;;;;4988723;28;20502;-81
2021/03/25 01:00:39;;;;;;;50.78;21.60;;;5.30;99.90;;;;;;5005004;28;20058;-81
2021/03/25 01:03:07;;;;;;;45.67;20.75;;;5.30;99.90;;;;;;5005462;28;20385;-81
2021/03/25 01:05:34;;;;;;;50.78;21.70;;;5.30;99.90;;;;;;5003200;28;20093;-81
2021/03/25 01:08:00;;;;;;;48.30;22.48;;;5.40;99.90;;;;;;4985148;28;20208;-81
2021/03/25 01:10:36;;;;;;;54.22;23.75;;;5.30;99.90;;;;;;5000730;28;20531;-81
2021/03/25 01:13:07;;;;;;;50.63;24.08;;;5.40;99.90;;;;;;5005548;28;20057;-82
2021/03/25 01:15:34;;;;;;;48.47;23.45;;;5.40;99.90;;;;;;4981717;28;20076;-82
2021/03/25 01:18:01;;;;;;;56.13;24.92;;;5.30;99.90;;;;;;4993225;28;20057;-81
2021/03/25 01:20:31;;;;;;;51.83;23.48;;;5.40;99.90;;;;;;5002941;28;20056;-81
2021/03/25 01:22:59;;;;;;;48.72;22.98;;;5.40;99.90;;;;;;4991554;28;20603;-81
2021/03/25 01:25:29;;;;;;;48.88;22.67;;;5.40;99.90;;;;;;4986581;28;20045;-82
2021/03/25 01:27:56;;;;;;;51.15;23.95;;;5.50;99.90;;;;;;5000837;28;20142;-82
2021/03/25 01:30:23;;;;;;;54.22;25.92;;;5.60;99.90;;;;;;4987646;28;20157;-81
2021/03/25 01:32:50;;;;;;;51.33;25.55;;;5.60;99.90;;;;;;4994214;28;20050;-82
2021/03/25 01:35:17;;;;;;;51.72;25.73;;;5.60;99.90;;;;;;4988824;28;20057;-82
2021/03/25 01:37:46;;;;;;;50.15;23.85;;;5.60;99.90;;;;;;4992660;28;20088;-82
2021/03/25 01:40:36;;;;;;;67.50;25.48;;;5.70;99.90;;;;;;4991121;28;20046;-82
2021/03/25 01:43:27;;;;;;;49.95;24.15;;;5.70;99.90;;;;;;4978835;28;20768;-82
2021/03/25 01:46:16;;;;;;;57.97;25.83;;;5.70;99.90;;;;;;4973848;28;20060;-82
2021/03/25 01:48:46;;;;;;;58.20;26.15;;;5.70;99.90;;;;;;5003542;28;20560;-82
2021/03/25 01:51:39;;;;;;;57.42;26.10;;;5.70;99.90;;;;;;4981016;28;20046;-81
2021/03/25 01:54:36;;;;;;;59.88;27.38;;;5.70;99.90;;;;;;4995119;28;20057;-82
2021/03/25 01:57:23;;;;;;;58.28;26.42;;;5.70;99.90;;;;;;5002065;28;20064;-82
2021/03/25 01:59:57;;;;;;;67.63;25.58;;;5.60;99.90;;;;;;5001203;28;20050;-82
2021/03/25 02:02:56;;;;;;;54.28;26.23;;;5.70;99.90;;;;;;5001476;28;20516;-82
2021/03/25 02:05:44;;;;;;;62.90;27.50;;;5.60;99.90;;;;;;4946665;28;20350;-82
2021/03/25 02:08:30;;;;;;;58.05;26.55;;;5.60;99.90;;;;;;5001424;28;20128;-82
2021/03/25 02:11:36;;;;;;;59.45;27.38;;;5.70;99.90;;;;;;4994017;28;20049;-82
2021/03/25 02:14:14;;;;;;;58.03;26.27;;;5.70;99.90;;;;;;5002789;28;20050;-82
2021/03/25 02:17:13;;;;;;;51.65;26.13;;;5.80;99.90;;;;;;4988883;28;20459;-82
2021/03/25 02:19:49;;;;;;;51.42;24.65;;;5.80;99.90;;;;;;4999273;28;20565;-82
2021/03/25 02:22:43;;;;;;;57.83;26.13;;;5.90;99.90;;;;;;4996895;28;20101;-82
2021/03/25 02:25:14;;;;;;;56.25;24.42;;;5.90;99.90;;;;;;4991414;28;20045;-82
2021/03/25 02:27:50;;;;;;;64.03;27.25;;;5.90;99.90;;;;;;4984228;28;20303;-82
2021/03/25 02:30:43;;;;;;;56.85;25.23;;;6.00;99.90;;;;;;5001554;28;20120;-82
2021/03/25 02:33:14;;;;;;;52.53;24.35;;;6.00;99.90;;;;;;5000322;28;20041;-82
2021/03/25 02:35:47;;;;;;;54.65;24.63;;;6.00;99.90;;;;;;4997183;28;20137;-82
2021/03/25 02:38:20;;;;;;;58.63;24.73;;;6.10;99.90;;;;;;5000169;28;20138;-82
2021/03/25 02:40:50;;;;;;;54.92;24.70;;;6.10;99.90;;;;;;4979629;28;20528;-82
2021/03/25 02:43:23;;;;;;;64.28;27.73;;;6.10;99.90;;;;;;4988209;28;20050;-82
2021/03/25 02:45:56;;;;;;;62.90;28.30;;;6.10;99.90;;;;;;5003094;28;20106;-82
2021/03/25 02:48:25;;;;;;;59.05;26.42;;;6.10;99.90;;;;;;4991900;28;20058;-82
2021/03/25 02:51:32;;;;;;;60.17;27.95;;;6.10;99.90;;;;;;4984358;28;20049;-82
2021/03/25 02:53:59;;;;;;;60.40;27.35;;;6.10;99.90;;;;;;4980444;28;20417;-82
2021/03/25 02:56:52;;;;;;;59.13;26.48;;;6.10;99.90;;;;;;5002545;28;20204;-82
2021/03/25 02:59:32;;;;;;;63.38;29.35;;;6.10;99.90;;;;;;5000801;28;20096;-82
2021/03/25 03:02:23;;;;;;;60.05;28.02;;;6.10;99.90;;;;;;4986536;28;20520;-82
2021/03/25 03:04:51;;;;;;;64.85;28.48;;;6.10;99.90;;;;;;4986298;28;20050;-82
2021/03/25 03:07:24;;;;;;;60.28;27.30;;;6.20;99.90;;;;;;4985510;28;20054;-82
2021/03/25 03:09:56;;;;;;;60.45;27.60;;;6.20;99.90;;;;;;4998605;28;20100;-82
2021/03/25 03:12:34;;;;;;;62.50;28.63;;;6.20;99.90;;;;;;5002501;28;20539;-82
2021/03/25 03:15:36;;;;;;;73.20;30.20;;;6.20;99.90;;;;;;4984174;28;20061;-82
2021/03/25 03:18:08;;;;;;;57.00;27.52;;;6.20;99.90;;;;;;4981769;28;20049;-82
2021/03/25 03:20:40;;;;;;;64.15;27.85;;;6.30;99.90;;;;;;5003621;28;20046;-82
2021/03/25 03:23:08;;;;;;;58.05;28.13;;;6.30;99.90;;;;;;5001530;28;20054;-82
2021/03/25 03:25:36;;;;;;;68.38;29.33;;;6.40;99.90;;;;;;4985375;28;20068;-82
2021/03/25 03:28:09;;;;;;;62.67;28.38;;;6.40;99.90;;;;;;4980906;28;20478;-82
2021/03/25 03:30:44;;;;;;;70.60;29.25;;;6.40;99.90;;;;;;4999880;28;20057;-82
2021/03/25 03:33:24;;;;;;;68.82;28.42;;;6.40;99.90;;;;;;4999919;28;20050;-82
2021/03/25 03:35:58;;;;;;;64.03;28.88;;;6.50;99.90;;;;;;4989924;28;20124;-82
2021/03/25 03:38:42;;;;;;;67.40;29.00;;;6.50;99.90;;;;;;5001612;28;20129;-82
2021/03/25 03:41:13;;;;;;;62.70;30.45;;;6.50;99.90;;;;;;4991904;28;20049;-82
2021/03/25 03:43:42;;;;;;;65.10;29.60;;;6.60;99.90;;;;;;4986079;28;20057;-82
2021/03/25 03:46:16;;;;;;;58.05;27.60;;;6.60;99.90;;;;;;5002623;28;20054;-83
2021/03/25 03:48:44;;;;;;;;;;;6.60;99.90;;;;;;4993941;28;20042;-82
2021/03/25 03:51:19;;;;;;;67.55;28.30;;;6.70;99.90;;;;;;5002994;28;19926;-81
2021/03/25 03:53:45;;;;;;;68.05;29.58;;;6.70;99.90;;;;;;4993137;28;20048;-82
2021/03/25 03:56:31;;;;;;;70.50;30.40;;;6.70;99.90;;;;;;5002874;28;20137;-82
2021/03/25 03:59:02;;;;;;;72.75;31.70;;;6.70;99.90;;;;;;5003786;28;20053;-83
2021/03/25 04:01:38;;;;;;;73.03;32.03;;;6.70;99.90;;;;;;4985772;28;20045;-82
2021/03/25 04:04:11;;;;;;;69.22;32.20;;;6.70;99.90;;;;;;5005149;28;20041;-82
2021/03/25 04:06:50;;;;;;;76.45;34.75;;;6.70;99.90;;;;;;4990034;28;20123;-82
2021/03/25 04:09:38;;;;;;;79.82;33.08;;;6.80;99.90;;;;;;4971204;28;20053;-82
2021/03/25 04:12:14;;;;;;;70.25;33.65;;;6.80;99.90;;;;;;4950370;28;20042;-82
2021/03/25 04:14:51;;;;;;;77.45;34.03;;;6.80;99.90;;;;;;4969275;28;20417;-82
2021/03/25 04:17:28;;;;;;;78.63;35.17;;;6.80;99.90;;;;;;4988974;28;20068;-82
2021/03/25 04:20:00;;;;;;;79.05;35.72;;;6.90;99.90;;;;;;5002223;28;20045;-82
2021/03/25 04:22:30;;;;;;;80.72;36.90;;;6.90;99.90;;;;;;4994280;28;20056;-82
2021/03/25 04:25:19;;;;;;;84.97;36.95;;;6.90;99.90;;;;;;4988310;28;20559;-82
2021/03/25 04:28:22;;;;;;;78.15;36.35;;;6.90;99.90;;;;;;5003122;28;20049;-82
2021/03/25 04:30:52;;;;;;;87.63;39.40;;;6.90;99.90;;;;;;4975853;28;20046;-82
2021/03/25 04:33:23;;;;;;;80.50;39.92;;;6.90;99.90;;;;;;4980180;28;20050;-82
2021/03/25 04:35:50;;;;;;;83.07;37.50;;;6.90;99.90;;;;;;4987450;28;20052;-82
2021/03/25 04:38:24;;;;;;;88.90;40.20;;;6.90;99.90;;;;;;4982419;28;20050;-82
2021/03/25 04:40:54;;;;;;;85.35;40.65;;;6.90;99.90;;;;;;5005178;28;20072;-82
2021/03/25 04:43:38;;;;;;;85.63;39.17;;;7.00;99.90;;;;;;4988851;28;20413;-82
2021/03/25 04:46:07;;;;;;;87.38;41.22;;;7.00;99.90;;;;;;4993906;28;20183;-82
2021/03/25 04:48:39;;;;;;;89.50;42.65;;;7.00;99.90;;;;;;5003285;28;20054;-82
2021/03/25 04:51:12;;;;;;;88.47;40.83;;;7.00;99.90;;;;;;4993975;28;20046;-81
2021/03/25 04:53:51;;;;;;;90.45;41.22;;;7.00;99.90;;;;;;4996423;28;20498;-82
2021/03/25 04:56:20;;;;;;;95.78;41.72;;;7.00;99.90;;;;;;4990036;28;20045;-82
2021/03/25 04:58:53;;;;;;;86.82;40.72;;;7.00;99.90;;;;;;4984674;28;20413;-81
2021/03/25 05:01:22;;;;;;;90.22;41.67;;;7.00;99.90;;;;;;4982352;28;20065;-81
2021/03/25 05:03:54;;;;;;;97.30;42.67;;;7.00;99.90;;;;;;4998978;28;20045;-81
2021/03/25 05:06:24;;;;;;;89.20;41.33;;;7.00;99.90;;;;;;4980872;28;20422;-81
2021/03/25 05:08:54;;;;;;;90.78;40.60;;;7.00;99.90;;;;;;4980062;28;20134;-80
2021/03/25 05:11:24;;;;;;;88.20;39.95;;;7.00;99.90;;;;;;4981964;28;20053;-81
2021/03/25 05:14:10;;;;;;;89.00;40.20;;;7.00;99.90;;;;;;4998514;28;20565;-81
2021/03/25 05:16:45;;;;;;;84.15;40.97;;;7.00;99.90;;;;;;5004157;28;20045;-82
2021/03/25 05:19:15;;;;;;;88.20;41.78;;;7.10;99.90;;;;;;5006745;28;20081;-82
2021/03/25 05:22:01;;;;;;;96.57;43.33;;;7.10;99.90;;;;;;4992137;28;20053;-81
2021/03/25 05:24:52;;;;;;;85.68;41.58;;;7.10;99.90;;;;;;4979551;28;20120;-82
2021/03/25 05:27:33;;;;;;;98.72;42.20;;;7.10;99.90;;;;;;5005621;28;20046;-82
2021/03/25 05:30:01;;;;;;;81.78;39.20;;;7.10;99.90;;;;;;4999129;28;20049;-82
2021/03/25 05:32:42;;;;;;;87.13;40.83;;;7.10;99.90;;;;;;4979283;28;20061;-82
2021/03/25 05:35:13;;;;;;;93.75;42.90;;;7.10;99.90;;;;;;4999230;28;20371;-82
2021/03/25 05:37:43;;;;;;;91.63;42.78;;;7.10;99.90;;;;;;4998054;28;20140;-82
2021/03/25 05:40:39;;;;;;;99.25;43.92;;;7.10;99.90;;;;;;4997669;28;20133;-82
2021/03/25 05:43:46;;;;;;;85.25;41.80;;;7.10;99.90;;;;;;5000873;28;20053;-82
2021/03/25 05:46:31;;;;;;;86.95;42.30;;;7.10;99.90;;;;;;4992911;28;20074;-82
2021/03/25 05:49:11;;;;;;;97.47;43.67;;;7.10;99.90;;;;;;4991033;28;20058;-82
2021/03/25 05:51:47;;;;;;;86.78;41.30;;;7.10;99.90;;;;;;4995871;28;20077;-82
2021/03/25 05:54:37;;;;;;;90.72;42.00;;;7.10;99.90;;;;;;4990314;28;20046;-82
2021/03/25 05:57:40;;;;;;;89.88;41.38;;;7.20;99.90;;;;;;5002108;28;20064;-82
2021/03/25 06:00:09;;;;;;;91.43;41.35;;;7.20;99.90;;;;;;4987416;28;20401;-82
2021/03/25 06:02:59;;;;;;;101.40;43.05;;;7.20;99.90;;;;;;5002276;28;20049;-82
2021/03/25 06:05:26;;;;;;;85.25;42.13;;;7.30;99.90;;;;;;5004341;28;20131;-82
2021/03/25 06:08:29;;;;;;;88.60;41.33;;;7.30;99.90;;;;;;4993262;28;20111;-82
2021/03/25 06:11:03;;;;;;;87.13;41.88;;;7.30;99.90;;;;;;4986772;28;20586;-82
2021/03/25 06:13:55;;;;;;;89.22;40.90;;;7.40;99.90;;;;;;5000760;28;20071;-82
2021/03/25 06:16:34;;;;;;;88.55;41.45;;;7.40;99.90;;;;;;5000640;28;20569;-82
2021/03/25 06:19:34;;;;;;;89.50;40.63;;;7.50;99.90;;;;;;5002245;28;20056;-82
2021/03/25 06:22:22;;;;;;;85.25;40.78;;;7.60;99.90;;;;;;5002064;28;20438;-82
2021/03/25 06:25:26;;;;;;;98.40;46.80;;;7.60;99.90;;;;;;4999440;28;20114;-82
2021/03/25 06:28:04;;;;;;;86.53;41.85;;;7.60;99.90;;;;;;4980012;28;20489;-82
2021/03/25 06:30:36;;;;;;;89.78;42.08;;;7.70;99.90;;;;;;4969034;28;20387;-81
2021/03/25 06:33:19;;;;;;;85.95;40.58;;;7.70;99.90;;;;;;4994023;28;20076;-82
2021/03/25 06:35:50;;;;;;;81.97;41.03;;;7.80;99.90;;;;;;4980260;28;20053;-81
2021/03/25 06:38:28;;;;;;;93.68;42.78;;;7.80;99.90;;;;;;4984576;28;20064;-82
2021/03/25 06:41:17;;;;;;;89.85;43.00;;;7.90;99.90;;;;;;4991486;28;20109;-82
2021/03/25 06:43:53;;;;;;;86.60;40.10;;;8.00;99.90;;;;;;5000781;28;20052;-81
2021/03/25 06:46:39;;;;;;;87.22;41.22;;;8.10;99.90;;;;;;4988048;28;20485;-82
2021/03/25 06:49:30;;;;;;;85.50;40.30;;;8.20;99.90;;;;;;4980134;28;20045;-82
2021/03/25 06:52:13;;;;;;;91.28;42.63;;;8.20;99.90;;;;;;4986664;28;20085;-82
2021/03/25 06:54:39;;;;;;;80.77;39.47;;;8.20;99.90;;;;;;4999450;28;20056;-82
2021/03/25 06:57:11;;;;;;;97.60;41.67;;;8.30;99.90;;;;;;4992547;28;20089;-82
2021/03/25 06:59:39;;;;;;;82.50;39.47;;;8.30;99.90;;;;;;4980190;28;20053;-81
2021/03/25 07:02:15;;;;;;;88.20;41.30;;;8.30;99.90;;;;;;4999868;28;20405;-81
2021/03/25 07:04:46;;;;;;;99.43;43.60;;;8.40;99.90;;;;;;5000802;28;20049;-83
2021/03/25 07:07:35;;;;;;;80.95;39.83;;;8.40;99.90;;;;;;4980114;28;20146;-81
2021/03/25 07:10:03;;;;;;;89.47;40.65;;;8.40;99.90;;;;;;4977211;28;20057;-79
2021/03/25 07:12:33;;;;;;;82.13;41.90;;;8.40;99.90;;;;;;4981609;28;20137;-80
2021/03/25 07:15:00;;;;;;;87.32;41.25;;;8.50;99.90;;;;;;4994838;28;20124;-81
2021/03/25 07:17:44;;;;;;;86.95;40.17;;;8.60;99.90;;;;;;5004985;28;20515;-81
2021/03/25 07:20:46;;;;;;;81.10;39.67;;;8.70;99.90;;;;;;5007912;28;20057;-81
2021/03/25 07:23:14;;;;;;;83.15;40.30;;;8.80;99.90;;;;;;4896506;29;20056;-83
2021/03/25 07:25:47;;;;;;;83.78;41.70;;;8.80;99.90;;;;;;4983004;28;20058;-82
2021/03/25 07:28:17;;;;;;;87.88;41.75;;;8.90;99.90;;;;;;4988263;28;20065;-82
2021/03/25 07:30:59;;;;;;;83.68;40.45;;;9.00;99.90;;;;;;4998509;28;20065;-80
2021/03/25 07:33:29;;;;;;;90.93;41.70;;;9.00;99.90;;;;;;5009632;28;20038;-80
2021/03/25 07:36:10;;;;;;;87.50;41.33;;;9.00;99.90;;;;;;4991126;28;20053;-80
2021/03/25 07:38:41;;;;;;;85.22;38.15;;;9.10;99.90;;;;;;5004640;28;20162;-80
2021/03/25 07:41:18;;;;;;;82.70;41.15;;;9.20;99.90;;;;;;5007890;28;20041;-81
2021/03/25 07:44:14;;;;;;;80.05;40.33;;;9.20;99.90;;;;;;5003181;28;20125;-80
2021/03/25 07:46:45;;;;;;;88.22;40.53;;;9.10;99.90;;;;;;4981076;28;20557;-81
2021/03/25 07:49:12;;;;;;;90.25;42.30;;;9.10;99.90;;;;;;4980970;28;20450;-80
2021/03/25 07:51:46;;;;;;;79.97;40.30;;;9.10;99.90;;;;;;5004751;28;20057;-81
2021/03/25 07:54:17;;;;;;;78.28;38.53;;;9.20;99.90;;;;;;4988349;28;20156;-81
2021/03/25 07:56:58;;;;;;;89.20;42.22;;;9.20;99.90;;;;;;4993900;28;20056;-82
2021/03/25 07:59:47;;;;;;;85.03;42.55;;;9.30;99.90;;;;;;4996347;28;20129;-81
2021/03/25 08:02:41;;;;;;;79.20;40.90;;;9.30;99.90;;;;;;5010124;28;20081;-81
2021/03/25 08:05:30;;;;;;;82.05;41.30;;;9.50;99.90;;;;;;4994202;28;20054;-81
2021/03/25 08:08:03;;;;;;;78.82;40.05;;;9.70;99.90;;;;;;5012614;28;20418;-80
2021/03/25 08:10:43;;;;;;;86.03;41.08;;;9.90;99.90;;;;;;5008875;28;20056;-81
2021/03/25 08:13:19;;;;;;;94.55;41.85;;;10.10;99.90;;;;;;4991748;28;20054;-81
2021/03/25 08:16:16;;;;;;;82.97;39.95;;;10.30;99.90;;;;;;4991304;28;20129;-81
2021/03/25 08:19:21;;;;;;;83.40;41.35;;;10.40;99.90;;;;;;4986446;28;20084;-80
2021/03/25 08:22:31;;;;;;;81.55;40.22;;;10.70;99.90;;;;;;4992461;28;20054;-79
2021/03/25 08:25:24;;;;;;;79.38;38.85;;;11.00;99.90;;;;;;4959237;28;20078;-81
2021/03/25 08:28:21;;;;;;;81.70;39.97;;;11.40;99.90;;;;;;4991994;28;20080;-82
2021/03/25 08:30:57;;;;;;;89.35;39.17;;;11.60;99.90;;;;;;4991593;28;20509;-82
2021/03/25 08:33:41;;;;;;;78.57;38.40;;;11.70;99.90;;;;;;5009174;28;20552;-80
2021/03/25 08:36:35;;;;;;;72.13;37.97;;;11.80;99.90;;;;;;4989855;28;20057;-81
2021/03/25 08:39:20;;;;;;;75.10;36.22;;;12.00;99.90;;;;;;4990856;28;20093;-80
2021/03/25 08:42:12;;;;;;;76.25;36.97;;;12.00;99.90;;;;;;4996760;28;20102;-81
2021/03/25 08:44:44;;;;;;;74.00;36.80;;;12.10;99.90;;;;;;4984521;28;20049;-81
2021/03/25 08:47:32;;;;;;;73.85;35.95;;;12.20;99.90;;;;;;4993847;28;20141;-83
2021/03/25 08:50:28;;;;;;;76.40;38.78;;;12.30;99.90;;;;;;5007511;28;20042;-81
2021/03/25 08:52:57;;;;;;;80.30;37.63;;;12.40;99.90;;;;;;5009058;28;20477;-81
2021/03/25 08:55:32;;;;;;;68.55;36.80;;;12.50;99.90;;;;;;5007757;28;20073;-81
2021/03/25 08:58:23;;;;;;;75.18;37.40;;;12.60;99.90;;;;;;5009109;28;20034;-82
2021/03/25 09:00:54;;;;;;;66.32;36.35;;;12.80;99.90;;;;;;4992116;28;20065;-80
2021/03/25 09:03:37;;;;;;;67.18;35.60;;;13.00;99.90;;;;;;4992328;28;20146;-79
2021/03/25 09:06:21;;;;;;;82.88;36.15;;;13.10;99.90;;;;;;5007528;28;20402;-80
2021/03/25 09:08:51;;;;;;;72.78;36.15;;;13.10;99.90;;;;;;4992455;28;20054;-79
2021/03/25 09:11:19;;;;;;;69.43;33.67;;;13.20;99.90;;;;;;5007714;28;20053;-79
2021/03/25 09:13:58;;;;;;;72.97;35.75;;;13.30;99.90;;;;;;4987907;28;20104;-80
2021/03/25 09:16:31;;;;;;;67.55;33.40;;;13.30;99.90;;;;;;5007482;28;20042;-80
2021/03/25 09:18:58;;;;;;;59.83;32.03;;;13.30;99.90;;;;;;5005717;28;20049;-80
2021/03/25 09:21:28;;;;;;;61.88;32.00;;;13.30;99.90;;;;;;5010433;28;20591;-79
2021/03/25 09:24:02;;;;;;;63.53;32.22;;;13.30;99.90;;;;;;4975959;28;20060;-80
2021/03/25 09:26:50;;;;;;;70.65;35.22;;;13.30;99.90;;;;;;4998281;28;20058;-80
2021/03/25 09:29:19;;;;;;;65.38;35.00;;;13.50;99.90;;;;;;5008170;28;20077;-80
2021/03/25 09:31:54;;;;;;;64.63;32.90;;;13.60;99.90;;;;;;4994279;28;20053;-79
2021/03/25 09:34:23;;;;;;;65.70;34.08;;;13.60;99.90;;;;;;4998950;28;20049;-80
2021/03/25 09:37:16;;;;;;;66.05;34.17;;;13.60;99.90;;;;;;5009721;28;20464;-80
2021/03/25 09:39:43;;;;;;;66.85;33.42;;;13.60;99.90;;;;;;5000477;28;20054;-81
2021/03/25 09:42:15;;;;;;;63.15;34.08;;;13.90;99.90;;;;;;5002626;28;20046;-81
2021/03/25 09:45:29;;;;;;;61.22;33.75;;;14.10;99.90;;;;;;5009551;28;20042;-81
2021/03/25 09:47:57;;;;;;;;;;;14.50;99.90;;;;;;4998897;28;20046;-81
2021/03/25 09:50:24;;;;;;;57.65;27.52;;;14.60;99.90;;;;;;4997164;28;20448;-80
2021/03/25 09:53:16;;;;;;;53.58;28.17;;;14.70;99.90;;;;;;5011303;28;20069;-81
2021/03/25 09:56:03;;;;;;;51.08;28.65;;;14.60;99.90;;;;;;4991536;28;20052;-81
2021/03/25 09:58:40;;;;;;;58.90;31.95;;;14.50;99.90;;;;;;4987580;28;20049;-81
2021/03/25 10:01:07;;;;;;;55.60;29.98;;;14.30;99.90;;;;;;5004806;28;20060;-81
2021/03/25 10:04:01;;;;;;;62.15;30.65;;;14.30;99.90;;;;;;5003027;28;20498;-81
2021/03/25 10:07:01;;;;;;;63.17;31.45;;;14.20;99.90;;;;;;5002359;28;20074;-81
2021/03/25 10:09:50;;;;;;;69.88;31.80;;;14.20;99.90;;;;;;5006389;28;20049;-80
2021/03/25 10:13:17;;;;;;;64.00;31.65;;;14.30;99.90;;;;;;4995285;28;20038;-81
2021/03/25 10:16:12;;;;;;;55.13;29.42;;;14.30;99.90;;;;;;5000473;28;20081;-81
2021/03/25 10:18:38;;;;;;;66.20;29.88;;;14.20;99.90;;;;;;4990786;28;20058;-82
2021/03/25 10:21:37;;;;;;;60.88;28.15;;;14.20;99.90;;;;;;5012698;28;20056;-82
2021/03/25 10:24:19;;;;;;;51.47;27.58;;;14.30;99.90;;;;;;4971649;28;20077;-82
2021/03/25 10:26:47;;;;;;;59.10;29.83;;;14.40;99.90;;;;;;5012179;28;20041;-82
2021/03/25 10:29:20;;;;;;;50.17;28.73;;;14.50;99.90;;;;;;4995568;28;20160;-82
2021/03/25 10:31:50;;;;;;;55.30;27.95;;;14.60;99.90;;;;;;5009454;28;20516;-82
2021/03/25 10:34:26;;;;;;;46.15;26.67;;;14.60;99.90;;;;;;5001832;28;20061;-80
2021/03/25 10:37:14;;;;;;;57.17;29.45;;;14.70;99.90;;;;;;5014002;28;20026;-81
2021/03/25 10:39:44;;;;;;;48.00;25.48;;;14.80;99.90;;;;;;4994700;28;20049;-81
2021/03/25 10:42:22;;;;;;;45.55;23.85;;;14.90;99.90;;;;;;5011692;28;20172;-81
2021/03/25 10:44:48;;;;;;;45.47;24.75;;;15.00;99.90;;;;;;4996622;28;20069;-81
2021/03/25 10:47:21;;;;;;;45.72;25.20;;;14.90;99.90;;;;;;4997969;28;20046;-81
2021/03/25 10:49:51;;;;;;;40.92;24.65;;;14.80;99.90;;;;;;4995556;28;20042;-81
2021/03/25 10:52:24;;;;;;;49.13;26.20;;;14.70;99.90;;;;;;5008945;28;20052;-81
2021/03/25 10:54:52;;;;;;;;;;;14.80;99.90;;;;;;5013003;28;20076;-81
2021/03/25 10:57:25;;;;;;;50.60;28.70;;;14.90;99.90;;;;;;5012640;28;20355;-80
2021/03/25 11:00:03;;;;;;;51.40;27.80;;;14.80;99.90;;;;;;4995350;28;20109;-81
2021/03/25 11:02:38;;;;;;;51.88;27.95;;;14.80;99.90;;;;;;5006068;28;20141;-81
2021/03/25 11:05:15;;;;;;;57.10;27.30;;;14.80;99.90;;;;;;5002307;28;20084;-81
2021/03/25 11:07:47;;;;;;;47.00;25.65;;;15.00;99.90;;;;;;4994064;28;20495;-81
2021/03/25 11:10:24;;;;;;;34.75;19.85;;;15.00;99.90;;;;;;5000978;28;20128;-81
2021/03/25 11:13:13;;;;;;;36.63;19.35;;;15.00;99.90;;;;;;4998136;28;20500;-81
2021/03/25 11:15:58;;;;;;;40.88;21.88;;;15.00;99.90;;;;;;5007911;28;20050;-82
2021/03/25 11:18:44;;;;;;;37.55;21.15;;;14.80;99.90;;;;;;5005106;28;20057;-80
2021/03/25 11:21:23;;;;;;;38.58;21.98;;;14.90;99.90;;;;;;5006455;28;20244;-80
2021/03/25 11:24:07;;;;;;;38.47;23.15;;;15.20;99.90;;;;;;4991673;28;20564;-81
2021/03/25 11:26:34;;;;;;;31.42;19.60;;;15.30;99.90;;;;;;4992568;28;20057;-83
2021/03/25 11:29:01;;;;;;;36.08;21.27;;;15.20;99.90;;;;;;4989268;28;20060;-83
2021/03/25 11:31:30;;;;;;;37.85;22.88;;;15.20;99.90;;;;;;4993633;28;20057;-83
2021/03/25 11:33:57;;;;;;;39.78;23.38;;;15.20;99.90;;;;;;5001627;28;20080;-83
2021/03/25 11:36:43;;;;;;;33.30;20.30;;;15.10;99.90;;;;;;4984722;28;20112;-81
2021/03/25 11:39:26;;;;;;;43.67;22.40;;;14.90;99.90;;;;;;4989522;28;20065;-81
2021/03/25 11:42:03;;;;;;;36.63;20.83;;;14.70;99.90;;;;;;5005297;28;20549;-81
2021/03/25 11:44:43;;;;;;;42.03;21.75;;;14.30;99.90;;;;;;4985257;28;20129;-77
2021/03/25 11:47:38;;;;;;;36.00;20.40;;;14.00;99.90;;;;;;5001717;28;20129;-80
2021/03/25 11:50:17;;;;;;;36.33;21.63;;;13.90;99.90;;;;;;4990362;28;20046;-79
2021/03/25 11:52:55;;;;;;;40.10;19.17;;;13.90;99.90;;;;;;5003419;28;20061;-79
2021/03/25 11:55:38;;;;;;;32.63;18.38;;;14.10;99.90;;;;;;4995872;28;20042;-79
2021/03/25 11:58:15;;;;;;;38.60;20.80;;;14.20;99.90;;;;;;4984723;28;20049;-79
2021/03/25 12:01:20;;;;;;;37.13;20.90;;;14.30;99.90;;;;;;5000180;28;20224;-79
2021/03/25 12:03:50;;;;;;;38.28;19.88;;;14.30;99.90;;;;;;4991643;28;20060;-79
2021/03/25 12:06:31;;;;;;;37.67;20.33;;;14.20;99.90;;;;;;5008630;28;20132;-79
2021/03/25 12:09:06;;;;;;;32.85;19.55;;;14.10;99.90;;;;;;4992109;28;20473;-79
2021/03/25 12:11:34;;;;;;;35.20;20.17;;;13.90;99.90;;;;;;5006671;28;20069;-79
2021/03/25 12:14:01;;;;;;;37.03;20.65;;;13.70;99.90;;;;;;5009365;28;20572;-80
2021/03/25 12:16:44;;;;;;;38.42;20.15;;;13.60;99.90;;;;;;4993774;28;20557;-80
2021/03/25 12:19:34;;;;;;;33.38;18.73;;;13.40;99.90;;;;;;4997215;28;20512;-79
2021/03/25 12:22:13;;;;;;;35.40;19.58;;;13.20;99.90;;;;;;5007845;28;20041;-79
2021/03/25 12:24:39;;;;;;;33.65;19.25;;;13.10;99.90;;;;;;4982926;28;20061;-80
2021/03/25 12:27:07;;;;;;;39.28;21.08;;;13.10;99.90;;;;;;4999608;28;20492;-80
2021/03/25 12:29:33;;;;;;;39.97;21.48;;;13.00;99.90;;;;;;5001162;28;20480;-80
2021/03/25 12:32:02;;;;;;;38.20;21.20;;;12.80;99.90;;;;;;5002885;28;20474;-79
2021/03/25 12:34:48;;;;;;;46.08;23.67;;;12.70;99.90;;;;;;5007976;28;20052;-79
2021/03/25 12:37:15;;;;;;;44.42;24.83;;;12.60;99.90;;;;;;5006070;28;20730;-78
2021/03/25 12:39:41;;;;;;;40.47;22.23;;;12.60;99.90;;;;;;5007491;28;20046;-78
2021/03/25 12:42:09;;;;;;;50.55;23.95;;;12.50;99.90;;;;;;5005570;28;20520;-78
2021/03/25 12:44:36;;;;;;;51.22;23.35;;;12.40;99.90;;;;;;5000639;28;20052;-78
2021/03/25 12:47:05;;;;;;;44.75;25.23;;;12.30;99.90;;;;;;4982848;28;20057;-79
2021/03/25 12:49:51;;;;;;;48.05;25.33;;;12.20;99.90;;;;;;5004882;28;20054;-78
2021/03/25 12:52:18;;;;;;;59.08;27.33;;;12.10;99.90;;;;;;5005854;28;20064;-78
2021/03/25 12:54:46;;;;;;;69.13;30.83;;;11.90;99.90;;;;;;5006433;28;20132;-78
2021/03/25 12:57:17;;;;;;;56.33;27.80;;;11.70;99.90;;;;;;4997138;28;20050;-79
2021/03/25 12:59:44;;;;;;;57.10;28.33;;;11.70;99.90;;;;;;5006743;28;20065;-79
2021/03/25 13:02:12;;;;;;;55.15;27.23;;;11.60;99.90;;;;;;5007293;28;20133;-79
2021/03/25 13:04:40;;;;;;;58.00;28.33;;;11.70;99.90;;;;;;5006369;28;20056;-79
2021/03/25 13:07:07;;;;;;;60.60;29.38;;;11.70;99.90;;;;;;5005837;28;20168;-78
2021/03/25 13:09:33;;;;;;;56.13;30.20;;;11.80;99.90;;;;;;4985386;28;20114;-78
2021/03/25 13:12:21;;;;;;;56.63;29.60;;;11.90;99.90;;;;;;4997901;28;20404;-79
2021/03/25 13:14:48;;;;;;;54.97;27.95;;;11.90;99.90;;;;;;5007556;28;20132;-79
2021/03/25 13:17:14;;;;;;;61.33;27.92;;;12.00;99.90;;;;;;4995803;28;20065;-79
2021/03/25 13:19:55;;;;;;;53.00;27.38;;;11.90;99.90;;;;;;5005048;28;20123;-79
2021/03/25 13:22:22;;;;;;;54.78;29.33;;;11.80;99.90;;;;;;5003475;28;20077;-79
2021/03/25 13:24:49;;;;;;;57.20;28.90;;;11.70;99.90;;;;;;4992289;28;20046;-78